createdAt,value
2019-04-21T00:01:20.368Z,57.64
2019-04-21T00:03:56.720Z,58.73
2019-04-21T00:06:41.205Z,58.52
2019-04-21T00:09:19.224Z,58.52
2019-04-21T00:11:40.869Z,58.63
2019-04-21T00:14:06.080Z,59.69
2019-04-21T00:16:34.689Z,59.69
2019-04-21T00:19:10.767Z,59.25
2019-04-21T00:21:43.683Z,59.54
2019-04-21T00:24:24.255Z,58.42
2019-04-21T00:27:03.765Z,58.33
2019-04-21T00:29:38.527Z,58.33
2019-04-21T00:32:00.665Z,59.17
2019-04-21T00:34:17.710Z,59.17
2019-04-21T00:37:01.195Z,60.32
2019-04-21T00:39:48.994Z,57.31
2019-04-21T00:42:09.782Z,57.31
2019-04-21T00:44:29.831Z,57.59
2019-04-21T00:47:05.509Z,58.18
2019-04-21T00:49:42.712Z,59.13
2019-04-21T00:52:51.487Z,59.62
2019-04-21T00:55:30.942Z,59.42
2019-04-21T00:57:58.579Z,59.45
2019-04-21T01:02:57.711Z,59.60
2019-04-21T01:05:30.122Z,59.79
2019-04-21T01:08:01.102Z,59.79
2019-04-21T01:10:24.468Z,60.44
2019-04-21T01:13:04.017Z,60.09
2019-04-21T01:15:37.387Z,59.52
2019-04-21T01:18:04.840Z,59.15
2019-04-21T01:20:17.693Z,59.83
2019-04-21T01:22:46.519Z,59.83
2019-04-21T01:25:22.885Z,60.44
2019-04-21T01:28:03.866Z,60.32
2019-04-21T01:30:39.934Z,59.32
2019-04-21T01:33:12.389Z,59.80
2019-04-21T01:35:39.790Z,59.37
2019-04-21T01:38:19.577Z,60.20
2019-04-21T01:40:47.683Z,60.48
2019-04-21T01:43:13.593Z,59.71
2019-04-21T01:45:47.299Z,59.71
2019-04-21T01:48:12.884Z,59.78
2019-04-21T01:50:47.034Z,59.78
2019-04-21T01:53:30.701Z,59.56
2019-04-21T01:56:03.370Z,59.69
2019-04-21T01:58:28.814Z,59.53
2019-04-21T02:01:05.677Z,59.13
2019-04-21T02:03:52.551Z,59.13
2019-04-21T02:06:18.513Z,59.07
2019-04-21T02:08:44.241Z,59.02
2019-04-21T02:11:19.124Z,59.11
2019-04-21T02:13:53.535Z,59.11
2019-04-21T02:16:19.024Z,59.90
2019-04-21T02:18:52.958Z,59.90
2019-04-21T02:21:18.150Z,59.64
2019-04-21T02:24:01.633Z,59.64
2019-04-21T02:26:26.671Z,59.76
2019-04-21T02:29:03.189Z,60.67
2019-04-21T02:31:37.641Z,60.38
2019-04-21T02:34:09.136Z,59.51
2019-04-21T02:39:16.701Z,59.72
2019-04-21T02:41:46.997Z,59.84
2019-04-21T02:44:30.320Z,59.50
2019-04-21T02:49:27.498Z,58.00
2019-04-21T02:51:54.460Z,58.95
2019-04-21T02:54:45.758Z,59.12
2019-04-21T03:05:11.543Z,59.32
2019-04-21T03:07:46.402Z,59.51
2019-04-21T03:10:11.540Z,61.69
2019-04-21T03:12:38.636Z,61.10
2019-04-21T03:15:33.211Z,61.49
2019-04-21T03:17:52.699Z,61.74
2019-04-21T03:23:02.087Z,62.27
2019-04-21T03:25:33.194Z,62.27
2019-04-21T03:28:00.692Z,61.74
2019-04-21T03:30:47.713Z,61.74
2019-04-21T03:36:00.797Z,61.18
2019-04-21T03:38:00.212Z,61.34
2019-04-21T03:40:24.067Z,61.89
2019-04-21T03:42:57.778Z,61.88
2019-04-21T03:45:30.675Z,62.04
2019-04-21T03:50:39.562Z,62.23
2019-04-21T03:53:03.111Z,62.05
2019-04-21T04:00:59.499Z,61.67
2019-04-21T04:06:43.201Z,60.59
2019-04-21T04:09:21.277Z,60.38
2019-04-21T04:11:54.802Z,59.95
2019-04-21T04:16:58.523Z,61.66
2019-04-21T04:19:18.645Z,61.57
2019-04-21T04:21:57.496Z,61.48
2019-04-21T04:24:36.395Z,61.21
2019-04-21T04:26:57.021Z,61.18
2019-04-21T04:31:47.398Z,60.84
2019-04-21T04:37:05.989Z,61.46
2019-04-21T04:40:10.561Z,61.39
2019-04-21T04:47:59.855Z,60.11
2019-04-21T04:50:35.822Z,59.71
2019-04-21T04:53:12.697Z,59.71
2019-04-21T04:55:29.583Z,60.33
2019-04-21T05:02:58.783Z,59.59
2019-04-21T05:05:26.864Z,59.47
2019-04-21T05:08:39.521Z,59.15
2019-04-21T05:10:38.532Z,59.14
2019-04-21T05:13:02.234Z,59.40
2019-04-21T05:15:23.668Z,57.89
2019-04-21T05:18:04.933Z,58.08
2019-04-21T05:20:37.034Z,58.08
2019-04-21T05:23:00.552Z,57.79
2019-04-21T05:25:31.094Z,55.28
2019-04-21T05:27:56.928Z,55.38
2019-04-21T05:30:52.008Z,54.50
2019-04-21T05:33:33.946Z,54.51
2019-04-21T05:36:11.012Z,53.37
2019-04-21T05:39:01.199Z,53.65
2019-04-21T05:41:22.101Z,52.66
2019-04-21T05:44:05.074Z,52.66
2019-04-21T05:46:42.514Z,52.82
2019-04-21T05:49:11.018Z,53.01
2019-04-21T05:51:57.494Z,53.08
2019-04-21T05:54:40.908Z,51.88
2019-04-21T05:57:02.544Z,51.13
2019-04-21T05:59:33.965Z,50.50
2019-04-21T06:02:15.106Z,49.51
2019-04-21T06:07:13.242Z,48.40
2019-04-21T06:09:44.105Z,45.74
2019-04-21T06:12:10.777Z,46.48
2019-04-21T06:14:49.429Z,44.68
2019-04-21T06:17:19.784Z,45.76
2019-04-21T06:19:49.529Z,44.97
2019-04-21T06:22:14.802Z,45.53
2019-04-21T06:25:10.978Z,44.67
2019-04-21T06:27:29.888Z,43.39
2019-04-21T06:29:54.645Z,41.93
2019-04-21T06:40:15.240Z,40.34
2019-04-21T06:42:32.663Z,41.74
2019-04-21T06:45:05.950Z,39.76
2019-04-21T06:50:12.180Z,38.73
2019-04-21T06:52:50.110Z,37.59
2019-04-21T06:55:13.856Z,37.18
2019-04-21T06:57:44.445Z,35.71
2019-04-21T07:00:11.761Z,35.06
2019-04-21T07:05:18.157Z,34.74
2019-04-21T07:07:54.930Z,33.22
2019-04-21T07:10:14.133Z,31.07
2019-04-21T07:12:44.924Z,28.80
2019-04-21T07:15:19.518Z,27.00
2019-04-21T07:17:54.739Z,24.51
2019-04-21T07:20:21.987Z,21.21
2019-04-21T07:22:56.473Z,20.55
2019-04-21T07:25:28.183Z,19.56
2019-04-21T07:27:59.322Z,18.05
2019-04-21T07:30:31.728Z,17.04
2019-04-21T07:33:07.557Z,14.88
2019-04-21T07:35:32.184Z,13.62
2019-04-21T07:38:01.267Z,13.90
2019-04-21T07:40:28.613Z,13.57
2019-04-21T07:43:01.339Z,12.80
2019-04-21T07:45:33.414Z,13.70
2019-04-21T07:48:14.002Z,13.93
2019-04-21T07:50:52.071Z,12.79
2019-04-21T07:53:27.756Z,13.35
2019-04-21T07:55:37.427Z,12.80
2019-04-21T07:58:26.225Z,13.05
2019-04-21T08:01:07.420Z,11.27
2019-04-21T08:03:30.009Z,12.38
2019-04-21T08:08:26.581Z,10.36
2019-04-21T08:11:07.739Z,11.11
2019-04-21T08:16:04.700Z,9.90
2019-04-21T08:21:05.802Z,11.71
2019-04-21T08:23:39.926Z,10.13
2019-04-21T08:26:10.387Z,10.01
2019-04-21T08:31:13.995Z,10.40
2019-04-21T08:33:47.037Z,9.83
2019-04-21T08:38:48.429Z,8.84
2019-04-21T08:41:12.324Z,8.33
2019-04-21T08:43:51.403Z,8.66
2019-04-21T08:46:18.924Z,8.98
2019-04-21T08:51:30.167Z,9.40
2019-04-21T08:53:53.715Z,10.15
2019-04-21T08:56:43.195Z,9.18
2019-04-21T08:59:31.183Z,9.64
2019-04-21T09:02:29.801Z,8.67
2019-04-21T09:05:03.414Z,8.38
2019-04-21T09:07:36.205Z,7.75
2019-04-21T09:09:58.046Z,7.98
2019-04-21T09:12:33.134Z,8.22
2019-04-21T09:15:01.561Z,9.23
2019-04-21T09:17:28.569Z,9.91
2019-04-21T09:20:13.977Z,9.63
2019-04-21T09:22:37.701Z,9.48
2019-04-21T09:25:01.498Z,8.61
2019-04-21T09:27:39.417Z,8.49
2019-04-21T09:29:57.175Z,9.06
2019-04-21T09:32:25.731Z,7.15
2019-04-21T09:34:53.464Z,7.71
2019-04-21T09:37:37.177Z,7.64
2019-04-21T09:39:57.314Z,9.25
2019-04-21T09:42:33.310Z,8.63
2019-04-21T09:45:00.867Z,7.68
2019-04-21T09:47:35.123Z,8.00
2019-04-21T09:50:01.818Z,8.51
2019-04-21T09:52:39.664Z,7.49
2019-04-21T09:55:08.295Z,6.83
2019-04-21T09:57:41.501Z,8.17
2019-04-21T10:00:11.362Z,7.66
2019-04-21T10:02:42.765Z,8.24
2019-04-21T10:05:07.664Z,6.52
2019-04-21T10:07:41.937Z,8.27
2019-04-21T10:10:08.441Z,7.84
2019-04-21T10:12:37.862Z,6.74
2019-04-21T10:15:08.584Z,6.83
2019-04-21T10:17:45.079Z,5.32
2019-04-21T10:20:14.895Z,6.23
2019-04-21T10:22:44.787Z,6.51
2019-04-21T10:25:14.876Z,6.88
2019-04-21T10:27:45.261Z,6.88
2019-04-21T10:30:16.244Z,6.36
2019-04-21T10:32:46.026Z,6.38
2019-04-21T10:35:18.176Z,6.96
2019-04-21T10:37:58.156Z,7.74
2019-04-21T10:40:19.568Z,7.33
2019-04-21T10:42:49.970Z,8.71
2019-04-21T10:45:19.467Z,7.09
2019-04-21T10:47:49.366Z,5.19
2019-04-21T10:50:18.807Z,5.25
2019-04-21T10:53:16.708Z,5.50
2019-04-21T10:56:01.582Z,5.76
2019-04-21T10:58:22.528Z,7.20
2019-04-21T11:00:55.703Z,7.72
2019-04-21T11:03:36.907Z,7.77
2019-04-21T11:06:08.511Z,7.56
2019-04-21T11:08:43.344Z,8.35
2019-04-21T11:11:10.007Z,7.82
2019-04-21T11:13:40.950Z,9.49
2019-04-21T11:16:10.986Z,10.41
2019-04-21T11:18:41.952Z,11.47
2019-04-21T11:21:13.105Z,13.00
2019-04-21T11:23:43.860Z,15.02
2019-04-21T11:26:13.922Z,15.66
2019-04-21T11:28:43.347Z,15.71
2019-04-21T11:31:15.677Z,15.96
2019-04-21T11:33:45.494Z,15.49
2019-04-21T11:36:15.427Z,15.56
2019-04-21T11:39:06.049Z,13.92
2019-04-21T11:41:21.896Z,14.41
2019-04-21T11:43:51.411Z,16.52
2019-04-21T11:46:20.821Z,15.71
2019-04-21T11:48:50.461Z,15.62
2019-04-21T11:51:19.985Z,15.51
2019-04-21T11:53:50.694Z,16.59
2019-04-21T11:56:20.912Z,17.56
2019-04-21T11:58:50.272Z,15.60
2019-04-21T12:01:19.642Z,17.06
2019-04-21T12:03:49.613Z,18.10
2019-04-21T12:06:19.479Z,18.04
2019-04-21T12:08:51.518Z,18.89
2019-04-21T12:11:21.028Z,19.31
2019-04-21T12:13:50.416Z,19.15
2019-04-21T12:16:21.033Z,19.01
2019-04-21T12:18:50.998Z,20.28
2019-04-21T12:21:23.271Z,17.94
2019-04-21T12:23:54.400Z,19.59
2019-04-21T12:26:24.169Z,19.10
2019-04-21T12:28:53.692Z,18.03
2019-04-21T12:31:45.568Z,18.54
2019-04-21T12:34:16.159Z,19.70
2019-04-21T12:36:46.506Z,19.34
2019-04-21T12:39:16.847Z,19.37
2019-04-21T12:41:46.697Z,19.91
2019-04-21T12:44:16.181Z,21.19
2019-04-21T12:46:45.673Z,19.51
2019-04-21T12:49:15.941Z,20.47
2019-04-21T12:51:46.111Z,19.28
2019-04-21T12:54:15.588Z,18.72
2019-04-21T12:56:45.610Z,20.36
2019-04-21T12:59:17.333Z,20.84
2019-04-21T13:01:46.719Z,20.61
2019-04-21T13:04:16.133Z,19.52
2019-04-21T13:06:45.873Z,18.13
2019-04-21T13:09:19.785Z,20.12
2019-04-21T13:11:47.016Z,21.59
2019-04-21T13:14:17.869Z,21.16
2019-04-21T13:16:47.837Z,20.05
2019-04-21T13:19:17.668Z,20.64
2019-04-21T13:21:47.910Z,20.71
2019-04-21T13:24:17.852Z,20.65
2019-04-21T13:26:53.619Z,20.82
2019-04-21T13:29:18.671Z,20.08
2019-04-21T13:31:48.272Z,20.09
2019-04-21T13:34:18.008Z,19.51
2019-04-21T13:36:47.788Z,20.17
2019-04-21T13:39:55.536Z,20.04
2019-04-21T13:42:16.068Z,20.37
2019-04-21T13:44:37.122Z,20.92
2019-04-21T13:47:07.036Z,21.35
2019-04-21T13:49:37.145Z,21.34
2019-04-21T13:52:06.784Z,20.89
2019-04-21T13:54:36.207Z,20.96
2019-04-21T13:57:05.870Z,20.66
2019-04-21T13:59:36.344Z,20.52
2019-04-21T14:02:06.913Z,20.43
2019-04-21T14:04:37.765Z,21.00
2019-04-21T14:07:08.190Z,21.19
2019-04-21T14:09:47.650Z,21.25
2019-04-21T14:12:09.660Z,21.40
2019-04-21T14:14:39.004Z,20.95
2019-04-21T14:17:08.901Z,21.15
2019-04-21T14:19:39.419Z,20.88
2019-04-21T14:22:11.667Z,20.98
2019-04-21T14:24:41.535Z,21.36
2019-04-21T14:27:12.140Z,21.83
2019-04-21T14:29:41.809Z,21.80
2019-04-21T14:32:11.208Z,21.41
2019-04-21T14:34:41.985Z,21.44
2019-04-21T14:37:12.928Z,22.16
2019-04-21T14:39:52.764Z,22.41
2019-04-21T14:42:14.119Z,22.65
2019-04-21T14:44:45.065Z,22.59
2019-04-21T14:47:34.979Z,23.06
2019-04-21T14:50:24.506Z,22.33
2019-04-21T14:53:13.838Z,22.40
2019-04-21T14:55:45.795Z,22.24
2019-04-21T14:58:15.487Z,23.20
2019-04-21T15:01:02.165Z,23.06
2019-04-21T15:03:32.079Z,23.15
2019-04-21T15:06:01.541Z,23.67
2019-04-21T15:08:31.338Z,24.31
2019-04-21T15:11:01.138Z,23.29
2019-04-21T15:13:32.189Z,23.82
2019-04-21T15:16:02.748Z,23.55
2019-04-21T15:18:32.811Z,23.32
2019-04-21T15:21:03.614Z,23.85
2019-04-21T15:23:33.953Z,24.33
2019-04-21T15:26:04.159Z,23.73
2019-04-21T15:28:35.717Z,23.28
2019-04-21T15:31:05.117Z,23.85
2019-04-21T15:33:34.953Z,23.33
2019-04-21T15:36:05.101Z,23.96
2019-04-21T15:38:35.831Z,24.32
2019-04-21T15:41:10.085Z,24.02
2019-04-21T15:43:36.806Z,24.39
2019-04-21T15:46:06.779Z,24.18
2019-04-21T15:48:37.044Z,24.05
2019-04-21T15:51:08.531Z,23.39
2019-04-21T15:53:37.935Z,23.87
2019-04-21T15:56:30.962Z,23.93
2019-04-21T15:59:08.386Z,24.68
2019-04-21T16:01:46.415Z,24.31
2019-04-21T16:04:16.818Z,24.52
2019-04-21T16:06:47.729Z,24.45
2019-04-21T16:09:21.598Z,24.29
2019-04-21T16:11:49.748Z,24.76
2019-04-21T16:14:20.502Z,24.28
2019-04-21T16:16:51.621Z,24.20
2019-04-21T16:19:21.199Z,24.91
2019-04-21T16:22:01.121Z,25.75
2019-04-21T16:24:33.575Z,25.41
2019-04-21T16:27:08.442Z,24.67
2019-04-21T16:29:39.519Z,24.65
2019-04-21T16:32:09.297Z,25.65
2019-04-21T16:34:48.355Z,25.45
2019-04-21T16:37:11.841Z,25.62
2019-04-21T16:39:41.620Z,25.88
2019-04-21T16:42:12.064Z,25.99
2019-04-21T16:44:42.873Z,26.35
2019-04-21T16:47:13.807Z,26.30
2019-04-21T16:49:43.703Z,25.96
2019-04-21T16:52:20.445Z,25.74
2019-04-21T16:54:58.334Z,26.21
2019-04-21T16:57:35.721Z,25.71
2019-04-21T17:00:10.718Z,26.51
2019-04-21T17:02:40.877Z,26.02
2019-04-21T17:05:12.512Z,26.30
2019-04-21T17:07:43.027Z,26.22
2019-04-21T17:10:12.852Z,26.18
2019-04-21T17:12:43.270Z,26.57
2019-04-21T17:15:29.393Z,26.58
2019-04-21T17:18:06.308Z,28.49
2019-04-21T17:20:33.375Z,27.45
2019-04-21T17:22:51.489Z,27.43
2019-04-21T17:25:24.921Z,28.01
2019-04-21T17:27:54.603Z,28.54
2019-04-21T17:30:24.341Z,29.07
2019-04-21T17:32:55.385Z,29.80
2019-04-21T17:35:24.929Z,30.87
2019-04-21T17:37:54.453Z,30.76
2019-04-21T17:40:24.244Z,30.97
2019-04-21T17:43:02.024Z,31.61
2019-04-21T17:45:25.299Z,32.26
2019-04-21T17:48:02.487Z,33.12
2019-04-21T17:50:47.373Z,33.07
2019-04-21T17:53:26.532Z,33.69
2019-04-21T17:56:15.283Z,34.30
2019-04-21T17:58:46.330Z,34.49
2019-04-21T18:01:19.581Z,34.55
2019-04-21T18:03:54.386Z,34.81
2019-04-21T18:06:14.267Z,35.00
2019-04-21T18:08:55.204Z,35.68
2019-04-21T18:11:12.673Z,36.25
2019-04-21T18:13:35.284Z,36.28
2019-04-21T18:16:15.841Z,36.25
2019-04-21T18:18:36.840Z,36.30
2019-04-21T18:21:16.752Z,36.43
2019-04-21T18:23:57.340Z,36.34
2019-04-21T18:26:28.889Z,36.23
2019-04-21T18:28:53.849Z,36.22
2019-04-21T18:31:22.993Z,36.29
2019-04-21T18:34:06.100Z,36.26
2019-04-21T18:36:59.402Z,36.48
2019-04-21T18:39:46.085Z,36.61
2019-04-21T18:42:45.384Z,37.02
2019-04-21T18:45:55.368Z,36.72
2019-04-21T18:48:19.073Z,36.88
2019-04-21T18:50:55.330Z,36.75
2019-04-21T18:53:37.855Z,37.12
2019-04-21T18:56:00.102Z,37.24
2019-04-21T18:58:26.483Z,37.27
2019-04-21T19:01:03.191Z,37.52
2019-04-21T19:03:35.796Z,37.62
2019-04-21T19:06:08.720Z,37.65
2019-04-21T19:08:53.389Z,38.16
2019-04-21T19:11:25.069Z,38.19
2019-04-21T19:14:32.294Z,38.17
2019-04-21T19:19:34.089Z,38.22
2019-04-21T19:21:40.597Z,37.92
2019-04-21T19:24:24.314Z,37.50
2019-04-21T19:26:54.658Z,37.59
2019-04-21T19:29:23.977Z,37.92
2019-04-21T19:31:49.306Z,37.32
2019-04-21T19:34:11.401Z,37.51
2019-04-21T19:36:34.451Z,37.56
2019-04-21T19:39:13.490Z,37.25
2019-04-21T19:41:50.996Z,37.47
2019-04-21T19:44:26.224Z,37.86
2019-04-21T19:47:05.211Z,37.90
2019-04-21T19:49:38.283Z,38.29
2019-04-21T19:51:54.049Z,38.37
2019-04-21T19:54:25.188Z,38.41
2019-04-21T19:56:49.080Z,38.51
2019-04-21T19:59:30.658Z,38.80
2019-04-21T20:01:51.322Z,38.49
2019-04-21T20:04:31.530Z,38.87
2019-04-21T20:07:03.009Z,39.00
2019-04-21T20:09:39.611Z,39.03
2019-04-21T20:12:10.687Z,39.04
2019-04-21T20:14:55.333Z,38.78
2019-04-21T20:17:09.969Z,39.05
2019-04-21T20:19:28.222Z,39.02
2019-04-21T20:21:59.009Z,39.63
2019-04-21T20:24:32.039Z,39.51
2019-04-21T20:27:07.892Z,39.63
2019-04-21T20:29:52.531Z,39.85
2019-04-21T20:32:26.695Z,40.07
2019-04-21T20:34:56.191Z,40.15
2019-04-21T20:37:29.717Z,40.13
2019-04-21T20:39:46.208Z,40.22
2019-04-21T20:42:21.157Z,40.28
2019-04-21T20:45:16.117Z,40.28
2019-04-21T20:47:22.874Z,40.37
2019-04-21T20:49:58.523Z,40.24
2019-04-21T20:52:38.422Z,40.31
2019-04-21T20:54:59.757Z,40.26
2019-04-21T20:57:32.853Z,40.23
2019-04-21T21:00:07.104Z,40.37
2019-04-21T21:02:41.713Z,39.89
2019-04-21T21:05:00.704Z,39.82
2019-04-21T21:10:10.666Z,39.94
2019-04-21T21:12:51.161Z,40.18
2019-04-21T21:15:03.408Z,40.14
2019-04-21T21:20:21.241Z,41.86
2019-04-21T21:22:42.334Z,43.26
2019-04-21T21:25:23.475Z,43.04
2019-04-21T21:27:41.870Z,43.56
2019-04-21T21:30:15.683Z,45.44
2019-04-21T21:32:50.861Z,45.22
2019-04-21T21:35:20.567Z,45.05
2019-04-21T21:37:54.884Z,44.87
2019-04-21T21:40:26.847Z,46.09
2019-04-21T21:42:43.797Z,44.52
2019-04-21T21:45:17.235Z,45.71
2019-04-21T21:48:04.636Z,45.24
2019-04-21T21:50:23.314Z,44.49
2019-04-21T21:52:57.634Z,45.60
2019-04-21T21:55:15.934Z,45.21
2019-04-21T21:57:50.365Z,45.76
2019-04-21T22:00:17.530Z,46.18
2019-04-21T22:02:51.315Z,47.09
2019-04-21T22:05:24.350Z,47.38
2019-04-21T22:07:52.167Z,47.06
2019-04-21T22:10:23.172Z,47.98
2019-04-21T22:13:00.753Z,47.81
2019-04-21T22:15:26.798Z,48.21
2019-04-21T22:18:19.400Z,47.96
2019-04-21T22:20:44.588Z,48.45
2019-04-21T22:23:06.402Z,48.09
2019-04-21T22:25:33.377Z,49.28
2019-04-21T22:27:59.999Z,48.16
2019-04-21T22:30:38.190Z,46.52
2019-04-21T22:33:06.265Z,47.69
2019-04-21T22:35:38.639Z,47.07
2019-04-21T22:38:19.097Z,47.34
2019-04-21T22:40:46.609Z,45.64
2019-04-21T22:43:16.820Z,44.74
2019-04-21T22:45:36.018Z,44.69
2019-04-21T22:48:13.603Z,44.88
2019-04-21T22:50:38.334Z,45.01
2019-04-21T22:53:10.136Z,45.14
2019-04-21T22:55:39.136Z,45.01
2019-04-21T22:58:09.595Z,45.30
2019-04-21T23:00:46.431Z,45.25
2019-04-21T23:03:17.342Z,45.57
2019-04-21T23:05:44.454Z,45.10
2019-04-21T23:08:13.109Z,45.13
2019-04-21T23:10:52.351Z,45.13
2019-04-21T23:13:18.287Z,44.95
2019-04-21T23:15:51.215Z,44.84
2019-04-21T23:18:30.801Z,44.93
2019-04-21T23:21:03.374Z,44.80
2019-04-21T23:23:42.222Z,44.76
2019-04-21T23:26:09.156Z,44.73
2019-04-21T23:28:40.304Z,44.82
2019-04-21T23:31:12.550Z,45.03
2019-04-21T23:33:23.881Z,45.17
2019-04-21T23:36:05.204Z,45.33
2019-04-21T23:38:30.228Z,45.51
2019-04-21T23:40:59.951Z,45.66
2019-04-21T23:43:30.047Z,45.88
2019-04-21T23:46:04.259Z,45.62
2019-04-21T23:48:43.834Z,45.30
2019-04-21T23:51:13.859Z,45.54
2019-04-21T23:53:33.286Z,45.65
2019-04-21T23:56:03.451Z,45.94
2019-04-21T23:58:35.213Z,45.85
